createdAt,value
2023-03-08T00:01:23.822Z,53.32
2023-03-08T00:03:58.496Z,53.26
2023-03-08T00:06:27.665Z,53.25
2023-03-08T00:08:59.993Z,53.38
2023-03-08T00:11:28.891Z,53.51
2023-03-08T00:13:56.065Z,53.61
2023-03-08T00:16:23.709Z,53.67
2023-03-08T00:18:50.642Z,53.96
2023-03-08T00:21:19.065Z,54.40
2023-03-08T00:23:46.932Z,54.63
2023-03-08T00:26:14.667Z,55.47
2023-03-08T00:28:41.755Z,56.74
2023-03-08T00:31:12.472Z,58.07
2023-03-08T00:33:41.296Z,58.35
2023-03-08T00:36:17.118Z,57.88
2023-03-08T00:38:45.844Z,56.87
2023-03-08T00:41:12.790Z,56.76
2023-03-08T00:43:43.658Z,56.47
2023-03-08T00:46:12.432Z,56.51
2023-03-08T00:48:40.268Z,56.19
2023-03-08T00:51:07.463Z,55.83
2023-03-08T00:53:34.706Z,55.68
2023-03-08T00:56:01.676Z,55.63
2023-03-08T00:58:30.850Z,55.57
2023-03-08T01:00:59.174Z,55.45
2023-03-08T01:03:27.056Z,55.17
2023-03-08T01:05:56.410Z,55.15
2023-03-08T01:08:26.371Z,55.19
2023-03-08T01:11:00.420Z,55.02
2023-03-08T01:13:32.498Z,55.12
2023-03-08T01:16:00.731Z,54.90
2023-03-08T01:18:28.563Z,54.93
2023-03-08T01:21:04.321Z,54.96
2023-03-08T01:23:32.328Z,55.35
2023-03-08T01:26:06.992Z,55.35
2023-03-08T01:28:34.614Z,55.14
2023-03-08T01:31:04.577Z,55.46
2023-03-08T01:33:31.947Z,55.39
2023-03-08T01:35:59.126Z,55.43
2023-03-08T01:38:26.277Z,55.69
2023-03-08T01:41:01.597Z,55.72
2023-03-08T01:43:36.526Z,55.88
2023-03-08T01:46:29.938Z,56.11
2023-03-08T01:49:13.555Z,56.59
2023-03-08T01:51:59.078Z,57.09
2023-03-08T01:54:42.701Z,58.32
2023-03-08T01:57:21.976Z,58.46
2023-03-08T01:59:51.790Z,58.43
2023-03-08T02:02:29.769Z,58.53
2023-03-08T02:04:56.633Z,58.46
2023-03-08T02:07:23.593Z,58.83
2023-03-08T02:09:50.780Z,59.00
2023-03-08T02:12:18.396Z,59.31
2023-03-08T02:14:45.743Z,59.42
2023-03-08T02:17:13.080Z,59.75
2023-03-08T02:20:10.973Z,60.11
2023-03-08T02:22:40.833Z,60.34
2023-03-08T02:25:21.090Z,60.81
2023-03-08T02:27:50.017Z,60.24
2023-03-08T02:30:24.170Z,60.26
2023-03-08T02:32:51.132Z,60.21
2023-03-08T02:35:19.097Z,60.20
2023-03-08T02:37:45.946Z,60.51
2023-03-08T02:40:13.799Z,60.76
2023-03-08T02:42:40.971Z,60.75
2023-03-08T02:45:08.973Z,60.93
2023-03-08T02:47:35.920Z,60.76
2023-03-08T02:50:02.727Z,60.46
2023-03-08T02:52:29.743Z,60.92
2023-03-08T02:54:56.508Z,60.96
2023-03-08T02:57:23.271Z,60.72
2023-03-08T02:59:50.010Z,60.76
2023-03-08T03:02:16.872Z,61.12
2023-03-08T03:04:43.684Z,60.90
2023-03-08T03:07:10.447Z,61.08
2023-03-08T03:09:37.231Z,61.48
2023-03-08T03:12:04.247Z,61.41
2023-03-08T03:14:32.771Z,61.69
2023-03-08T03:16:59.560Z,61.49
2023-03-08T03:19:26.435Z,61.26
2023-03-08T03:21:53.175Z,61.69
2023-03-08T03:24:19.978Z,61.96
2023-03-08T03:26:49.451Z,62.53
2023-03-08T03:29:17.864Z,62.52
2023-03-08T03:31:45.251Z,63.02
2023-03-08T03:34:12.244Z,62.52
2023-03-08T03:36:39.088Z,62.74
2023-03-08T03:39:06.418Z,62.76
2023-03-08T03:41:34.424Z,62.75
2023-03-08T03:44:01.317Z,62.90
2023-03-08T03:46:28.247Z,63.15
2023-03-08T03:48:55.002Z,63.02
2023-03-08T03:51:23.536Z,63.36
2023-03-08T03:53:50.841Z,63.54
2023-03-08T03:56:22.823Z,63.41
2023-03-08T03:58:51.175Z,62.93
2023-03-08T04:01:28.873Z,62.28
2023-03-08T04:03:57.086Z,62.13
2023-03-08T04:06:27.995Z,62.25
2023-03-08T04:09:03.989Z,62.27
2023-03-08T04:11:40.732Z,62.24
2023-03-08T04:14:08.549Z,61.89
2023-03-08T04:16:38.732Z,62.11
2023-03-08T04:19:10.957Z,61.36
2023-03-08T04:21:37.922Z,61.63
2023-03-08T04:24:05.408Z,62.59
2023-03-08T04:26:32.332Z,63.09
2023-03-08T04:28:59.303Z,63.13
2023-03-08T04:31:29.171Z,63.24
2023-03-08T04:33:58.105Z,65.15
2023-03-08T04:36:25.012Z,65.87
2023-03-08T04:38:52.751Z,65.76
2023-03-08T04:41:20.127Z,65.46
2023-03-08T04:43:51.764Z,66.26
2023-03-08T04:46:21.512Z,65.46
2023-03-08T04:48:48.873Z,64.93
2023-03-08T04:51:16.976Z,65.14
2023-03-08T04:53:45.333Z,65.09
2023-03-08T04:56:14.552Z,66.24
2023-03-08T04:58:42.487Z,66.21
2023-03-08T05:01:29.804Z,66.81
2023-03-08T05:03:57.869Z,65.81
2023-03-08T05:06:27.366Z,64.96
2023-03-08T05:08:55.807Z,64.76
2023-03-08T05:11:26.725Z,64.26
2023-03-08T05:13:56.352Z,64.01
2023-03-08T05:16:24.231Z,64.66
2023-03-08T05:18:51.044Z,65.67
2023-03-08T05:21:22.024Z,65.68
2023-03-08T05:23:48.840Z,65.28
2023-03-08T05:26:17.867Z,65.83
2023-03-08T05:28:45.492Z,64.56
2023-03-08T05:31:16.642Z,65.43
2023-03-08T05:33:46.536Z,64.82
2023-03-08T05:36:15.401Z,64.66
2023-03-08T05:38:42.645Z,64.95
2023-03-08T05:41:14.298Z,65.35
2023-03-08T05:43:42.509Z,66.75
2023-03-08T05:46:14.919Z,67.02
2023-03-08T05:48:42.482Z,68.33
2023-03-08T05:51:14.838Z,69.06
2023-03-08T05:53:42.493Z,68.65
2023-03-08T05:56:28.350Z,68.17
2023-03-08T05:58:55.383Z,67.69
2023-03-08T06:01:26.368Z,68.25
2023-03-08T06:03:57.254Z,68.80
2023-03-08T06:06:27.314Z,69.61
2023-03-08T06:08:56.326Z,69.64
2023-03-08T06:11:23.731Z,69.72
2023-03-08T06:13:50.666Z,69.91
2023-03-08T06:16:17.592Z,69.96
2023-03-08T06:18:44.635Z,70.03
2023-03-08T06:21:18.428Z,70.13
2023-03-08T06:23:46.093Z,70.96
2023-03-08T06:26:14.378Z,71.04
2023-03-08T06:28:42.028Z,70.34
2023-03-08T06:31:14.251Z,68.31
2023-03-08T06:33:42.214Z,67.44
2023-03-08T06:36:18.990Z,67.02
2023-03-08T06:38:46.833Z,66.58
2023-03-08T06:41:16.554Z,66.18
2023-03-08T06:43:43.690Z,68.13
2023-03-08T06:46:14.292Z,68.16
2023-03-08T06:48:41.741Z,68.68
2023-03-08T06:51:09.094Z,67.77
2023-03-08T06:53:36.181Z,67.50
2023-03-08T06:56:04.522Z,68.36
2023-03-08T06:58:31.685Z,69.20
2023-03-08T07:01:00.047Z,68.94
2023-03-08T07:03:27.922Z,69.32
2023-03-08T07:06:06.383Z,69.85
2023-03-08T07:08:33.354Z,71.08
2023-03-08T07:11:01.796Z,71.64
2023-03-08T07:13:29.745Z,72.94
2023-03-08T07:15:57.791Z,76.27
2023-03-08T07:18:26.166Z,78.15
2023-03-08T07:20:56.090Z,81.77
2023-03-08T07:23:23.746Z,83.57
2023-03-08T07:25:50.966Z,84.03
2023-03-08T07:28:17.838Z,84.87
2023-03-08T07:30:53.125Z,85.34
2023-03-08T07:33:21.551Z,87.09
2023-03-08T07:35:49.064Z,89.62
2023-03-08T07:38:17.151Z,91.35
2023-03-08T07:40:44.843Z,91.25
2023-03-08T07:43:11.939Z,96.11
2023-03-08T07:45:39.640Z,100.00
2023-03-08T07:48:07.227Z,100.00
2023-03-08T07:50:33.999Z,100.00
2023-03-08T07:53:01.308Z,100.00
2023-03-08T07:55:28.517Z,100.00
2023-03-08T07:57:55.367Z,100.00
2023-03-08T08:00:22.669Z,100.00
2023-03-08T08:02:49.519Z,100.00
2023-03-08T08:05:16.749Z,100.00
2023-03-08T08:07:47.857Z,100.00
2023-03-08T08:10:14.861Z,100.00
2023-03-08T08:12:41.596Z,100.00
2023-03-08T08:15:08.773Z,100.00
2023-03-08T08:17:35.655Z,100.00
2023-03-08T08:20:02.543Z,100.00
2023-03-08T08:22:29.297Z,100.00
2023-03-08T08:24:56.105Z,100.00
2023-03-08T08:27:22.873Z,100.00
2023-03-08T08:29:50.794Z,100.00
2023-03-08T08:32:17.636Z,100.00
2023-03-08T08:34:47.062Z,100.00
2023-03-08T08:37:13.896Z,100.00
2023-03-08T08:39:40.741Z,100.00
2023-03-08T08:42:07.977Z,100.00
2023-03-08T08:44:34.842Z,100.00
2023-03-08T08:47:01.687Z,100.00
2023-03-08T08:49:28.470Z,100.00
2023-03-08T08:51:55.271Z,100.00
2023-03-08T08:54:22.130Z,100.00
2023-03-08T08:56:48.944Z,100.00
2023-03-08T08:59:16.503Z,100.00
2023-03-08T09:01:44.059Z,100.00
2023-03-08T09:04:13.771Z,100.00
2023-03-08T09:06:41.012Z,100.00
2023-03-08T09:09:08.949Z,100.00
2023-03-08T09:11:42.174Z,100.00
2023-03-08T09:14:15.574Z,100.00
2023-03-08T09:16:42.459Z,100.00
2023-03-08T09:19:09.594Z,100.00
2023-03-08T09:21:36.620Z,100.00
2023-03-08T09:24:08.900Z,100.00
2023-03-08T09:26:37.786Z,100.00
2023-03-08T09:29:07.102Z,100.00
2023-03-08T09:31:37.548Z,100.00
2023-03-08T09:34:08.760Z,100.00
2023-03-08T09:36:39.366Z,100.00
2023-03-08T09:39:08.770Z,100.00
2023-03-08T09:41:44.890Z,100.00
2023-03-08T09:44:57.080Z,100.00
2023-03-08T09:47:50.835Z,100.00
2023-03-08T09:50:24.446Z,100.00
2023-03-08T09:53:24.590Z,100.00
2023-03-08T09:56:24.147Z,100.00
2023-03-08T09:59:07.663Z,100.00
2023-03-08T10:02:29.092Z,100.00
2023-03-08T10:05:14.154Z,100.00
2023-03-08T10:08:09.550Z,100.00
2023-03-08T10:11:00.233Z,100.00
2023-03-08T10:13:50.697Z,100.00
2023-03-08T10:16:37.797Z,100.00
2023-03-08T10:19:32.768Z,100.00
2023-03-08T10:22:09.195Z,100.00
2023-03-08T10:24:55.055Z,100.00
2023-03-08T10:27:27.195Z,100.00
2023-03-08T10:29:58.108Z,100.00
2023-03-08T10:32:27.342Z,100.00
2023-03-08T10:35:04.972Z,100.00
2023-03-08T10:37:34.612Z,100.00
2023-03-08T10:40:07.847Z,100.00
2023-03-08T10:42:36.186Z,100.00
2023-03-08T10:45:22.013Z,100.00
2023-03-08T10:48:17.517Z,100.00
2023-03-08T10:50:44.287Z,100.00
2023-03-08T10:53:20.902Z,100.00
2023-03-08T10:55:52.615Z,100.00
2023-03-08T10:58:40.571Z,100.00
2023-03-08T11:01:28.557Z,100.00
2023-03-08T11:04:21.463Z,100.00
2023-03-08T11:06:48.617Z,100.00
2023-03-08T11:09:27.863Z,100.00
2023-03-08T11:11:56.971Z,100.00
2023-03-08T11:14:29.368Z,100.00
2023-03-08T11:17:07.493Z,100.00
2023-03-08T11:20:11.758Z,100.00
2023-03-08T11:22:59.973Z,100.00
2023-03-08T11:25:55.491Z,100.00
2023-03-08T11:28:40.332Z,100.00
2023-03-08T11:31:31.369Z,100.00
2023-03-08T11:34:17.737Z,100.00
2023-03-08T11:37:21.794Z,100.00
2023-03-08T11:40:19.867Z,100.00
2023-03-08T11:43:30.429Z,100.00
2023-03-08T11:46:41.509Z,100.00
2023-03-08T11:49:40.733Z,100.00
2023-03-08T11:52:40.732Z,100.00
2023-03-08T11:55:32.578Z,100.00
2023-03-08T11:58:33.508Z,100.00
2023-03-08T12:01:07.541Z,100.00
2023-03-08T12:03:43.369Z,100.00
2023-03-08T12:06:29.338Z,100.00
2023-03-08T12:09:20.012Z,100.00
2023-03-08T12:11:56.951Z,100.00
2023-03-08T12:14:31.287Z,100.00
2023-03-08T12:17:25.024Z,100.00
2023-03-08T12:19:52.354Z,100.00
2023-03-08T12:22:53.945Z,100.00
2023-03-08T12:25:34.758Z,100.00
2023-03-08T12:28:20.723Z,100.00
2023-03-08T12:30:47.789Z,100.00
2023-03-08T12:33:18.118Z,100.00
2023-03-08T12:35:59.190Z,100.00
2023-03-08T12:38:42.393Z,100.00
2023-03-08T12:41:30.234Z,100.00
2023-03-08T12:44:23.345Z,100.00
2023-03-08T12:47:03.900Z,100.00
2023-03-08T12:49:37.404Z,100.00
2023-03-08T12:52:25.422Z,100.00
2023-03-08T12:55:09.088Z,100.00
2023-03-08T12:57:57.687Z,100.00
2023-03-08T13:00:31.877Z,100.00
2023-03-08T13:03:12.656Z,100.00
2023-03-08T13:05:49.699Z,100.00
2023-03-08T13:08:29.396Z,100.00
2023-03-08T13:11:00.838Z,100.00
2023-03-08T13:13:53.990Z,100.00
2023-03-08T13:16:39.887Z,100.00
2023-03-08T13:19:14.722Z,100.00
2023-03-08T13:21:55.730Z,99.75
2023-03-08T13:24:55.992Z,100.00
2023-03-08T13:28:05.168Z,100.00
2023-03-08T13:30:44.071Z,100.00
2023-03-08T13:33:21.771Z,100.00
2023-03-08T13:36:06.515Z,100.00
2023-03-08T13:38:40.160Z,100.00
2023-03-08T13:41:07.514Z,100.00
2023-03-08T13:43:35.925Z,100.00
2023-03-08T13:46:10.761Z,100.00
2023-03-08T13:48:37.893Z,100.00
2023-03-08T13:51:05.087Z,100.00
2023-03-08T13:53:36.419Z,100.00
2023-03-08T13:56:06.329Z,100.00
2023-03-08T13:58:48.424Z,100.00
2023-03-08T14:01:22.217Z,100.00
2023-03-08T14:03:51.525Z,100.00
2023-03-08T14:06:22.985Z,100.00
2023-03-08T14:08:51.450Z,100.00
2023-03-08T14:11:27.708Z,100.00
2023-03-08T14:13:57.664Z,100.00
2023-03-08T14:16:34.263Z,100.00
2023-03-08T14:19:32.416Z,100.00
2023-03-08T14:22:21.182Z,100.00
2023-03-08T14:25:03.046Z,100.00
2023-03-08T14:27:46.061Z,100.00
2023-03-08T14:30:22.929Z,100.00
2023-03-08T14:33:18.968Z,100.00
2023-03-08T14:35:59.877Z,100.00
2023-03-08T14:38:34.225Z,100.00
2023-03-08T14:41:10.138Z,100.00
2023-03-08T14:43:37.813Z,100.00
2023-03-08T14:46:09.065Z,100.00
2023-03-08T14:48:38.472Z,100.00
2023-03-08T14:51:19.809Z,100.00
2023-03-08T14:54:06.093Z,100.00
2023-03-08T14:56:34.834Z,100.00
2023-03-08T14:59:05.588Z,100.00
2023-03-08T15:01:35.465Z,100.00
2023-03-08T15:04:12.068Z,100.00
2023-03-08T15:06:40.728Z,100.00
2023-03-08T15:09:08.746Z,100.00
2023-03-08T15:11:36.267Z,100.00
2023-03-08T15:14:04.063Z,100.00
2023-03-08T15:16:31.130Z,100.00
2023-03-08T15:18:58.019Z,100.00
2023-03-08T15:21:28.273Z,100.00
2023-03-08T15:23:56.858Z,100.00
2023-03-08T15:26:28.664Z,100.00
2023-03-08T15:28:55.918Z,100.00
2023-03-08T15:31:23.105Z,100.00
2023-03-08T15:33:50.151Z,100.00
2023-03-08T15:36:19.650Z,100.00
2023-03-08T15:38:46.773Z,100.00
2023-03-08T15:41:16.420Z,100.00
2023-03-08T15:43:45.978Z,100.00
2023-03-08T15:46:15.331Z,100.00
2023-03-08T15:48:45.792Z,100.00
2023-03-08T15:51:22.365Z,100.00
2023-03-08T15:53:49.693Z,100.00
2023-03-08T15:56:16.987Z,100.00
2023-03-08T15:58:43.737Z,100.00
2023-03-08T16:01:11.830Z,100.00
2023-03-08T16:03:38.677Z,100.00
2023-03-08T16:06:13.840Z,100.00
2023-03-08T16:08:42.130Z,100.00
2023-03-08T16:11:11.343Z,100.00
2023-03-08T16:13:38.188Z,100.00
2023-03-08T16:16:07.062Z,100.00
2023-03-08T16:18:36.208Z,100.00
2023-03-08T16:21:09.009Z,100.00
2023-03-08T16:23:37.799Z,100.00
2023-03-08T16:26:17.081Z,100.00
2023-03-08T16:28:47.913Z,100.00
2023-03-08T16:31:19.755Z,100.00
2023-03-08T16:33:46.724Z,100.00
2023-03-08T16:36:16.901Z,100.00
2023-03-08T16:38:43.690Z,100.00
2023-03-08T16:41:13.888Z,100.00
2023-03-08T16:43:48.026Z,100.00
2023-03-08T16:46:21.194Z,100.00
2023-03-08T16:48:50.440Z,100.00
2023-03-08T16:51:20.798Z,100.00
2023-03-08T16:53:48.754Z,100.00
2023-03-08T16:56:29.648Z,100.00
2023-03-08T16:59:00.149Z,100.00
2023-03-08T17:01:28.584Z,100.00
2023-03-08T17:03:56.594Z,100.00
2023-03-08T17:06:31.322Z,100.00
2023-03-08T17:08:59.591Z,100.00
2023-03-08T17:11:33.139Z,100.00
2023-03-08T17:14:10.042Z,100.00
2023-03-08T17:16:38.119Z,100.00
2023-03-08T17:19:07.794Z,100.00
2023-03-08T17:21:38.621Z,100.00
2023-03-08T17:24:09.148Z,100.00
2023-03-08T17:26:41.502Z,100.00
2023-03-08T17:29:08.452Z,100.00
2023-03-08T17:31:35.453Z,100.00
2023-03-08T17:34:02.717Z,100.00
2023-03-08T17:36:29.956Z,100.00
2023-03-08T17:38:57.383Z,100.00
2023-03-08T17:41:24.212Z,100.00
2023-03-08T17:43:51.697Z,100.00
2023-03-08T17:46:27.165Z,100.00
2023-03-08T17:48:55.776Z,100.00
2023-03-08T17:51:27.069Z,100.00
2023-03-08T17:53:56.687Z,100.00
2023-03-08T17:56:29.391Z,100.00
2023-03-08T17:58:59.245Z,100.00
2023-03-08T18:01:32.218Z,100.00
2023-03-08T18:04:01.270Z,100.00
2023-03-08T18:06:42.129Z,100.00
2023-03-08T18:09:16.845Z,100.00
2023-03-08T18:11:48.739Z,100.00
2023-03-08T18:14:18.079Z,100.00
2023-03-08T18:16:46.705Z,100.00
2023-03-08T18:19:13.792Z,100.00
2023-03-08T18:21:41.535Z,100.00
2023-03-08T18:24:12.713Z,100.00
2023-03-08T18:26:39.527Z,100.00
2023-03-08T18:29:07.552Z,100.00
2023-03-08T18:31:37.102Z,100.00
2023-03-08T18:34:05.333Z,100.00
2023-03-08T18:36:32.880Z,100.00
2023-03-08T18:38:59.962Z,100.00
2023-03-08T18:41:29.549Z,100.00
2023-03-08T18:43:58.442Z,100.00
2023-03-08T18:46:29.148Z,100.00
2023-03-08T18:49:00.729Z,100.00
2023-03-08T18:51:29.928Z,100.00
2023-03-08T18:53:58.236Z,100.00
2023-03-08T18:56:27.351Z,100.00
2023-03-08T18:58:57.306Z,100.00
2023-03-08T19:01:24.338Z,100.00
2023-03-08T19:03:52.169Z,100.00
2023-03-08T19:06:18.979Z,100.00
2023-03-08T19:08:45.745Z,100.00
2023-03-08T19:11:20.471Z,100.00
2023-03-08T19:13:48.492Z,100.00
2023-03-08T19:16:31.839Z,100.00
2023-03-08T19:19:11.209Z,100.00
2023-03-08T19:21:48.539Z,100.00
2023-03-08T19:24:18.790Z,100.00
2023-03-08T19:26:48.852Z,100.00
2023-03-08T19:29:23.715Z,100.00
2023-03-08T19:31:57.186Z,100.00
2023-03-08T19:34:31.371Z,100.00
2023-03-08T19:36:59.494Z,100.00
2023-03-08T19:39:30.307Z,100.00
2023-03-08T19:42:01.981Z,100.00
2023-03-08T19:44:30.012Z,100.00
2023-03-08T19:46:57.145Z,100.00
2023-03-08T19:49:32.366Z,100.00
2023-03-08T19:52:04.465Z,100.00
2023-03-08T19:54:32.003Z,100.00
2023-03-08T19:57:00.151Z,100.00
2023-03-08T19:59:27.691Z,100.00
2023-03-08T20:01:56.134Z,100.00
2023-03-08T20:04:24.647Z,100.00
2023-03-08T20:06:52.068Z,100.00
2023-03-08T20:09:22.544Z,100.00
2023-03-08T20:11:58.455Z,100.00
2023-03-08T20:14:27.595Z,100.00
2023-03-08T20:16:55.727Z,100.00
2023-03-08T20:19:22.992Z,100.00
2023-03-08T20:21:49.818Z,100.00
2023-03-08T20:24:18.790Z,100.00
2023-03-08T20:26:46.173Z,100.00
2023-03-08T20:29:13.409Z,100.00
2023-03-08T20:31:40.218Z,100.00
2023-03-08T20:34:07.042Z,100.00
2023-03-08T20:36:33.874Z,100.00
2023-03-08T20:39:01.059Z,100.00
2023-03-08T20:41:28.933Z,100.00
2023-03-08T20:43:56.350Z,100.00
2023-03-08T20:46:28.248Z,100.00
2023-03-08T20:48:55.272Z,100.00
2023-03-08T20:51:24.046Z,100.00
2023-03-08T20:53:54.352Z,100.00
2023-03-08T20:56:24.246Z,100.00
2023-03-08T20:58:54.395Z,100.00
2023-03-08T21:01:32.201Z,100.00
2023-03-08T21:03:59.507Z,100.00
2023-03-08T21:06:30.696Z,100.00
2023-03-08T21:08:59.519Z,100.00
2023-03-08T21:11:27.448Z,100.00
2023-03-08T21:13:55.523Z,100.00
2023-03-08T21:16:25.205Z,100.00
2023-03-08T21:18:58.736Z,100.00
2023-03-08T21:21:34.126Z,100.00
2023-03-08T21:24:16.285Z,100.00
2023-03-08T21:26:44.522Z,100.00
2023-03-08T21:29:18.614Z,100.00
2023-03-08T21:31:53.431Z,100.00
2023-03-08T21:34:21.473Z,100.00
2023-03-08T21:36:48.552Z,100.00
2023-03-08T21:39:15.839Z,100.00
2023-03-08T21:41:47.635Z,100.00
2023-03-08T21:44:19.239Z,100.00
2023-03-08T21:46:47.891Z,100.00
2023-03-08T21:49:26.586Z,100.00
2023-03-08T21:51:55.751Z,100.00
2023-03-08T21:54:25.449Z,100.00
2023-03-08T21:56:53.039Z,100.00
2023-03-08T21:59:23.884Z,100.00
2023-03-08T22:01:53.978Z,100.00
2023-03-08T22:04:21.465Z,100.00
2023-03-08T22:06:48.326Z,100.00
2023-03-08T22:09:15.424Z,100.00
2023-03-08T22:11:42.351Z,100.00
2023-03-08T22:14:10.369Z,100.00
2023-03-08T22:16:39.844Z,100.00
2023-03-08T22:19:06.941Z,100.00
2023-03-08T22:21:33.956Z,100.00
2023-03-08T22:24:02.743Z,100.00
2023-03-08T22:26:31.386Z,100.00
2023-03-08T22:28:59.116Z,100.00
2023-03-08T22:31:29.429Z,100.00
2023-03-08T22:33:57.608Z,100.00
2023-03-08T22:36:24.927Z,100.00
2023-03-08T22:38:54.281Z,100.00
2023-03-08T22:41:25.284Z,100.00
2023-03-08T22:43:53.036Z,100.00
2023-03-08T22:46:27.803Z,100.00
2023-03-08T22:48:58.070Z,100.00
2023-03-08T22:51:28.237Z,100.00
2023-03-08T22:53:56.410Z,100.00
2023-03-08T22:56:31.727Z,100.00
2023-03-08T22:59:00.625Z,100.00
2023-03-08T23:01:30.508Z,100.00
2023-03-08T23:03:59.734Z,100.00
2023-03-08T23:06:29.163Z,100.00
2023-03-08T23:08:59.658Z,100.00
2023-03-08T23:11:27.932Z,100.00
2023-03-08T23:13:54.964Z,100.00
2023-03-08T23:16:22.217Z,100.00
2023-03-08T23:18:52.140Z,100.00
2023-03-08T23:21:23.091Z,100.00
2023-03-08T23:23:50.318Z,100.00
2023-03-08T23:26:21.195Z,100.00
2023-03-08T23:28:48.370Z,100.00
2023-03-08T23:31:19.692Z,100.00
2023-03-08T23:33:48.028Z,100.00
2023-03-08T23:36:17.738Z,100.00
2023-03-08T23:38:44.963Z,100.00
2023-03-08T23:41:14.474Z,100.00
2023-03-08T23:43:42.533Z,100.00
2023-03-08T23:46:16.222Z,100.00
2023-03-08T23:48:45.255Z,100.00
2023-03-08T23:51:18.430Z,100.00
2023-03-08T23:53:49.359Z,100.00
2023-03-08T23:56:26.478Z,100.00
2023-03-08T23:58:59.298Z,100.00
